Time;durP1;ratioP1;P1;durP2;ratioP2;P2;SDS_P1;SDS_P2;PMS_P1;PMS_P2;Temp;Humidity;BMP_temperature;BMP_pressure;BME280_temperature;BME280_humidity;BME280_pressure;Samples;Min_cycle;Max_cycle;Signal;HPM_P1;HPM_P2
2021/04/19 00:00:00;;;;;;;;;;;8.20;99.90;;;;;;10611763;27;20019;-87
2021/04/19 00:05:04;;;;;;;;;;;7.50;99.90;;;;;;10611477;27;19923;-87
2021/04/19 00:10:06;;;;;;;;;;;7.10;99.90;;;;;;10610966;27;20351;-87
2021/04/19 00:15:09;;;;;;;;;;;7.10;99.90;;;;;;10628834;27;19927;-88
2021/04/19 00:20:11;;;;;;;;;;;7.00;99.90;;;;;;10627595;27;19998;-87
2021/04/19 00:25:13;;;;;;;;;;;7.10;99.90;;;;;;10630996;27;19923;-87
2021/04/19 00:30:14;;;;;;;;;;;7.00;99.90;;;;;;10593875;27;19929;-87
2021/04/19 00:35:16;;;;;;;;;;;6.70;99.90;;;;;;10628374;27;19924;-87
2021/04/19 00:40:18;;;;;;;;;;;6.70;99.90;;;;;;10610039;27;19930;-88
2021/04/19 00:45:20;;;;;;;;;;;6.60;99.90;;;;;;10609978;27;19923;-87
2021/04/19 00:50:25;;;;;;;;;;;6.50;99.90;;;;;;10627831;27;19923;-87
2021/04/19 00:55:27;;;;;;;;;;;6.50;99.90;;;;;;10598417;27;20014;-87
2021/04/19 01:00:30;;;;;;;;;;;6.50;99.90;;;;;;10567330;28;19923;-87
2021/04/19 01:05:38;;;;;;;;;;;6.30;99.90;;;;;;10565787;28;20294;-87
2021/04/19 01:10:40;;;;;;;;;;;6.20;99.90;;;;;;10567352;28;19924;-87
2021/04/19 01:15:41;;;;;;;;;;;6.00;99.90;;;;;;10580288;27;19924;-87
2021/04/19 01:20:43;;;;;;;;;;;6.00;99.90;;;;;;10591767;27;19931;-87
2021/04/19 01:25:45;;;;;;;;;;;6.00;99.90;;;;;;10624620;27;19962;-87
2021/04/19 01:30:47;;;;;;;;;;;5.80;99.90;;;;;;10564645;28;19966;-88
2021/04/19 01:35:49;;;;;;;;;;;6.00;99.90;;;;;;10583406;28;20294;-87
2021/04/19 01:40:53;;;;;;;;;;;7.80;99.90;;;;;;10548827;28;20010;-88
2021/04/19 01:45:55;;;;;;;;;;;5.90;99.90;;;;;;10581028;27;19930;-88
2021/04/19 01:50:56;;;;;;;;;;;6.20;99.90;;;;;;10598012;27;19934;-87
2021/04/19 01:55:58;;;;;;;;;;;5.70;99.90;;;;;;10607039;27;19923;-88
2021/04/19 02:01:00;;;;;;;;;;;5.60;99.90;;;;;;10590472;27;20041;-88
2021/04/19 02:06:05;;;;;;;;;;;5.70;99.90;;;;;;10588452;27;19923;-87
2021/04/19 02:11:25;;;;;;;;;;;5.70;99.90;;;;;;10617186;28;20309;-86
2021/04/19 02:16:46;;;;;;;;;;;5.80;99.90;;;;;;10591500;27;20491;-87
2021/04/19 02:21:52;;;;;;;;;;;5.70;99.90;;;;;;10596159;28;20255;-87
2021/04/19 02:26:55;;;;;;;;;;;5.70;99.90;;;;;;10596900;28;19931;-87
2021/04/19 02:31:58;;;;;;;;;;;7.20;99.90;;;;;;10578464;28;19927;-87
2021/04/19 02:37:01;;;;;;;;;;;6.40;99.90;;;;;;10623152;27;19924;-87
2021/04/19 02:42:04;;;;;;;;;;;6.40;99.90;;;;;;10638865;27;19924;-87
2021/04/19 02:47:05;;;;;;;;;;;5.50;99.90;;;;;;10620430;27;19927;-87
2021/04/19 02:52:10;;;;;;;;;;;5.90;99.90;;;;;;10619985;27;19931;-87
2021/04/19 02:57:25;;;;;;;;;;;5.50;99.90;;;;;;10607492;27;19924;-87
2021/04/19 03:02:28;;;;;;;;;;;5.60;99.90;;;;;;10576793;28;19934;-87
2021/04/19 03:07:34;;;;;;;;;;;5.40;99.90;;;;;;10596024;28;19949;-88
2021/04/19 03:12:36;;;;;;;;;;;5.30;99.90;;;;;;10577277;28;20361;-87
2021/04/19 03:17:38;;;;;;;;;;;5.40;99.90;;;;;;10612757;27;19923;-87
2021/04/19 03:22:41;;;;;;;;;;;5.10;99.90;;;;;;10637185;27;20358;-87
2021/04/19 03:27:44;;;;;;;;;;;6.40;99.90;;;;;;10631558;27;20285;-87
2021/04/19 03:32:47;;;;;;;;;;;7.40;99.90;;;;;;10613604;27;20297;-87
2021/04/19 03:37:49;;;;;;;;;;;5.60;99.90;;;;;;10346928;22;19926;-89
2021/04/19 03:42:53;;;;;;;;;;;5.20;99.90;;;;;;10293603;28;20025;-88
2021/04/19 03:47:55;;;;;;;;;;;5.10;99.90;;;;;;10292206;28;19926;-89
2021/04/19 03:52:59;;;;;;;;;;;6.90;99.90;;;;;;10292266;28;19930;-89
2021/04/19 03:58:00;;;;;;;;;;;5.80;99.90;;;;;;10291477;28;19926;-89
2021/04/19 04:03:02;;;;;;;;;;;5.10;99.90;;;;;;10275183;28;19933;-89
2021/04/19 04:08:05;;;;;;;;;;;5.20;99.90;;;;;;10244082;29;19933;-89
2021/04/19 04:13:06;;;;;;;;;;;5.30;99.90;;;;;;10250943;29;20270;-88
2021/04/19 04:18:07;;;;;;;;;;;5.60;99.90;;;;;;10234589;29;19941;-89
2021/04/19 04:23:09;;;;;;;;;;;5.30;99.90;;;;;;10250506;28;20743;-89
2021/04/19 04:28:11;;;;;;;;;;;5.50;99.90;;;;;;10252282;29;19926;-89
2021/04/19 04:33:12;;;;;;;;;;;5.60;99.90;;;;;;10235160;29;19948;-89
2021/04/19 04:38:13;;;;;;;;;;;6.10;99.90;;;;;;10257691;28;19934;-89
2021/04/19 04:43:22;;;;;;;;;;;5.70;99.90;;;;;;10279013;28;20254;-89
2021/04/19 04:48:43;;;;;;;;;;;5.80;99.90;;;;;;10290402;28;19962;-88
2021/04/19 04:53:53;;;;;;;;;;;6.00;99.90;;;;;;10289552;28;19972;-89
2021/04/19 04:58:56;;;;;;;;;;;5.90;99.90;;;;;;10289960;28;19926;-89
2021/04/19 05:03:58;;;;;;;;;;;5.90;99.90;;;;;;10290073;28;20448;-89
2021/04/19 05:09:00;;;;;;;;;;;7.30;99.90;;;;;;10273386;28;20021;-90
2021/04/19 05:14:02;;;;;;;;;;;6.00;99.90;;;;;;10289753;28;19976;-89
2021/04/19 05:19:04;;;;;;;;;;;7.40;99.90;;;;;;10290595;28;19934;-89
2021/04/19 05:24:06;;;;;;;;;;;6.10;99.90;;;;;;10288576;28;19933;-88
2021/04/19 05:29:08;;;;;;;;;;;6.20;99.90;;;;;;10289092;28;19941;-88
2021/04/19 05:34:09;;;;;;;;;;;8.30;99.90;;;;;;10273974;28;19926;-88
2021/04/19 05:39:11;;;;;;;;;;;6.40;99.90;;;;;;10312321;28;20376;-88
2021/04/19 05:44:13;;;;;;;;;;;6.20;99.90;;;;;;10312750;28;19932;-88
2021/04/19 05:49:14;;;;;;;;;;;6.20;99.90;;;;;;10312129;28;19932;-89
2021/04/19 05:54:17;;;;;;;;;;;6.20;99.90;;;;;;10296703;28;20024;-89
2021/04/19 05:59:38;;;;;;;;;;;6.10;99.90;;;;;;10278792;28;19926;-89
2021/04/19 06:04:40;;;;;;;;;;;6.10;99.90;;;;;;10285498;28;19926;-89
2021/04/19 06:09:54;;;;;;;;;;;6.00;99.90;;;;;;10292784;28;19926;-89
2021/04/19 06:14:59;;;;;;;;;;;6.10;99.90;;;;;;10312561;28;19933;-89
2021/04/19 06:20:00;;;;;;;;;;;6.10;99.90;;;;;;10328509;28;19926;-89
2021/04/19 06:25:02;;;;;;;;;;;6.70;99.90;;;;;;10329114;28;19933;-89
2021/04/19 06:30:16;;;;;;;;;;;6.20;99.90;;;;;;10450224;28;20621;-89
2021/04/19 06:35:18;;;;;;;;;;;6.20;99.90;;;;;;10287299;28;19930;-88
2021/04/19 06:40:21;;;;;;;;;;;6.30;99.90;;;;;;10288266;28;19930;-88
2021/04/19 06:45:23;;;;;;;;;;;6.70;99.90;;;;;;10295140;28;19932;-88
2021/04/19 06:50:24;;;;;;;;;;;6.80;99.90;;;;;;10310111;28;19925;-88
2021/04/19 06:55:25;;;;;;;;;;;6.60;99.90;;;;;;10327521;28;20285;-88
2021/04/19 07:00:28;;;;;;;;;;;6.30;99.90;;;;;;10328803;28;19934;-88
2021/04/19 07:05:34;;;;;;;;;;;6.40;99.90;;;;;;10317916;28;19926;-88
2021/04/19 07:10:37;;;;;;;;;;;6.60;99.90;;;;;;10430677;28;20383;-88
2021/04/19 07:15:44;;;;;;;;;;;6.80;99.90;;;;;;10345949;28;20025;-88
2021/04/19 07:20:46;;;;;;;;;;;6.80;99.90;;;;;;10403347;28;20380;-87
2021/04/19 07:25:47;;;;;;;;;;;7.30;99.90;;;;;;10402848;28;20017;-87
2021/04/19 07:30:57;;;;;;;;;;;7.00;99.90;;;;;;10317890;28;19932;-88
2021/04/19 07:36:17;;;;;;;;;;;7.70;99.90;;;;;;10334955;28;19930;-88
2021/04/19 07:41:18;;;;;;;;;;;7.60;99.90;;;;;;10334523;28;19929;-87
2021/04/19 07:46:21;;;;;;;;;;;7.70;99.90;;;;;;10318188;28;19926;-88
2021/04/19 07:51:35;;;;;;;;;;;7.90;99.90;;;;;;10334070;28;19974;-88
2021/04/19 07:56:40;;;;;;;;;;;8.10;99.90;;;;;;10334965;28;19926;-88
2021/04/19 08:02:04;;;;;;;;;;;8.10;99.90;;;;;;10334397;28;19925;-88
2021/04/19 08:07:16;;;;;;;;;;;8.10;99.90;;;;;;10335338;28;19961;-88
2021/04/19 08:12:17;;;;;;;;;;;8.40;99.90;;;;;;10316426;28;20009;-88
2021/04/19 08:17:18;;;;;;;;;;;9.10;99.90;;;;;;10300723;28;19933;-88
2021/04/19 08:22:21;;;;;;;;;;;8.80;99.90;;;;;;10261673;28;19972;-88
2021/04/19 08:27:24;;;;;;;;;;;8.80;99.90;;;;;;10276045;28;19926;-87
2021/04/19 08:32:29;;;;;;;;;;;8.70;99.90;;;;;;10260026;28;19926;-89
2021/04/19 08:37:31;;;;;;;;;;;8.60;99.90;;;;;;10261002;28;19926;-88
2021/04/19 08:42:34;;;;;;;;;;;9.10;99.90;;;;;;10332697;28;19925;-88
2021/04/19 08:47:35;;;;;;;;;;;8.90;99.90;;;;;;10494717;28;19950;-88
2021/04/19 08:52:38;;;;;;;;;;;10.20;99.90;;;;;;10525005;28;19928;-89
2021/04/19 08:57:40;;;;;;;;;;;8.90;99.90;;;;;;10525346;28;19939;-88
2021/04/19 09:02:42;;;;;;;;;;;9.10;99.90;;;;;;10524682;28;19930;-88
2021/04/19 09:07:45;;;;;;;;;;;10.00;99.90;;;;;;10542927;28;20001;-87
2021/04/19 09:12:47;;;;;;;;;;;9.00;99.90;;;;;;10479575;28;19925;-88
2021/04/19 09:18:18;;;;;;;;;;;9.70;99.90;;;;;;10313193;28;19926;-88
2021/04/19 09:23:21;;;;;;;;;;;9.40;99.90;;;;;;10386828;28;19969;-88
2021/04/19 09:28:41;;;;;;;;;;;9.40;99.90;;;;;;10372515;28;20020;-88
2021/04/19 09:33:45;;;;;;;;;;;9.60;99.90;;;;;;10299706;23;19979;-88
2021/04/19 09:38:52;;;;;;;;;;;10.50;99.90;;;;;;10409476;28;20291;-88
2021/04/19 09:43:58;;;;;;;;;;;10.20;99.90;;;;;;10410639;28;20310;-89
2021/04/19 09:49:00;;;;;;;;;;;10.90;99.90;;;;;;10408781;28;19939;-87
2021/04/19 09:54:05;;;;;;;;;;;11.20;99.90;;;;;;10409361;28;19925;-88
2021/04/19 09:59:08;;;;;;;;;;;11.50;99.90;;;;;;10409034;28;20264;-88
2021/04/19 10:04:09;;;;;;;;;;;11.50;99.90;;;;;;10411046;28;19929;-88
2021/04/19 10:09:11;;;;;;;;;;;11.30;99.90;;;;;;10392418;28;20290;-87
2021/04/19 10:14:14;;;;;;;;;;;11.20;99.90;;;;;;10408569;28;20367;-88
2021/04/19 10:19:25;;;;;;;;;;;11.30;99.90;;;;;;10409527;28;20442;-88
2021/04/19 10:24:27;;;;;;;;;;;11.40;99.90;;;;;;10383855;28;20024;-88
2021/04/19 10:29:29;;;;;;;;;;;11.70;99.90;;;;;;10367436;28;19973;-88
2021/04/19 10:34:31;;;;;;;;;;;12.00;99.90;;;;;;10390821;28;20039;-88
2021/04/19 10:39:34;;;;;;;;;;;12.60;99.90;;;;;;10415103;28;20387;-87
2021/04/19 10:44:42;;;;;;;;;;;12.60;99.90;;;;;;10416160;28;19925;-88
2021/04/19 10:49:45;;;;;;;;;;;13.00;99.90;;;;;;10411421;28;19933;-88
2021/04/19 10:54:46;;;;;;;;;;;13.50;99.90;;;;;;10402913;28;19925;-88
2021/04/19 10:59:49;;;;;;;;;;;13.50;99.90;;;;;;10415222;28;19925;-88
2021/04/19 11:04:50;;;;;;;;;;;13.70;99.90;;;;;;10414485;28;19925;-88
2021/04/19 11:10:10;;;;;;;;;;;13.90;99.90;;;;;;10397750;28;20391;-85
2021/04/19 11:15:12;;;;;;;;;;;13.60;99.90;;;;;;10413479;28;19925;-85
2021/04/19 11:20:24;;;;;;;;;;;13.60;99.90;;;;;;10394920;28;19975;-86
2021/04/19 11:25:26;;;;;;;;;;;14.70;99.90;;;;;;10391411;28;20309;-85
2021/04/19 11:30:30;;;;;;;;;;;14.00;99.90;;;;;;10415488;28;19931;-85
2021/04/19 11:35:40;;;;;;;;;;;13.20;99.90;;;;;;10373703;28;20406;-85
2021/04/19 11:40:45;;;;;;;;;;;12.90;99.90;;;;;;10393501;28;20020;-85
2021/04/19 11:45:47;;;;;;;;;;;13.20;99.90;;;;;;10412145;28;19929;-85
2021/04/19 11:50:50;;;;;;;;;;;13.40;99.90;;;;;;10412415;28;19926;-85
2021/04/19 11:55:52;;;;;;;;;;;13.60;99.90;;;;;;10413254;28;19925;-87
2021/04/19 12:01:06;;;;;;;;;;;13.40;99.90;;;;;;10401651;28;20016;-87
2021/04/19 12:06:10;;;;;;;;;;;13.20;99.90;;;;;;10414522;28;19925;-87
2021/04/19 12:11:12;;;;;;;;;;;13.10;99.90;;;;;;10410136;27;19925;-89
2021/04/19 12:16:14;;;;;;;;;;;13.30;99.90;;;;;;10405961;28;19991;-87
2021/04/19 12:21:16;;;;;;;;;;;13.20;99.90;;;;;;10372453;28;19932;-87
2021/04/19 12:26:18;;;;;;;;;;;13.70;99.90;;;;;;10371000;28;19926;-88
2021/04/19 12:31:39;;;;;;;;;;;14.60;99.90;;;;;;10359623;28;19998;-85
2021/04/19 12:36:41;;;;;;;;;;;14.50;99.90;;;;;;10372148;28;19933;-88
2021/04/19 12:41:42;;;;;;;;;;;14.30;99.90;;;;;;10411665;28;19925;-87
2021/04/19 12:46:44;;;;;;;;;;;13.50;99.90;;;;;;10370733;28;19931;-88
2021/04/19 12:51:46;;;;;;;;;;;13.00;99.90;;;;;;10371405;28;19957;-88
2021/04/19 12:56:47;;;;;;;;;;;12.70;99.90;;;;;;10386538;28;19926;-89
2021/04/19 13:01:49;;;;;;;;;;;11.80;99.90;;;;;;10395655;28;19936;-89
2021/04/19 13:06:50;;;;;;;;;;;11.40;99.90;;;;;;10394919;28;19925;-89
2021/04/19 13:11:51;;;;;;;;;;;11.20;99.90;;;;;;10412145;28;19931;-89
2021/04/19 13:16:52;;;;;;;;;;;10.90;99.90;;;;;;10410947;28;19925;-89
2021/04/19 13:21:54;;;;;;;;;;;11.00;99.90;;;;;;10411201;28;19925;-88
2021/04/19 13:26:55;;;;;;;;;;;11.00;99.90;;;;;;10410980;28;19931;-89
2021/04/19 13:31:56;;;;;;;;;;;11.20;99.90;;;;;;10410892;28;20329;-88
2021/04/19 13:36:58;;;;;;;;;;;11.50;99.90;;;;;;10407776;28;19960;-89
2021/04/19 13:42:00;;;;;;;;;;;11.50;99.90;;;;;;10410389;28;20275;-88
2021/04/19 13:47:16;;;;;;;;;;;11.60;99.90;;;;;;10405854;28;20016;-88
2021/04/19 13:52:18;;;;;;;;;;;11.60;99.90;;;;;;10393618;28;19963;-88
2021/04/19 13:57:19;;;;;;;;;;;11.70;99.90;;;;;;10409056;28;20429;-88
2021/04/19 14:02:21;;;;;;;;;;;12.00;99.90;;;;;;10410525;28;19932;-88
2021/04/19 14:07:23;;;;;;;;;;;11.80;99.90;;;;;;10408866;28;20395;-88
2021/04/19 14:12:25;;;;;;;;;;;11.90;99.90;;;;;;10409059;28;20299;-87
2021/04/19 14:17:26;;;;;;;;;;;12.20;99.90;;;;;;10409775;28;19925;-88
2021/04/19 14:22:29;;;;;;;;;;;12.50;99.90;;;;;;10407682;28;20387;-85
2021/04/19 14:27:30;;;;;;;;;;;12.60;99.90;;;;;;10410103;28;19925;-85
2021/04/19 14:32:32;;;;;;;;;;;13.20;99.90;;;;;;10408902;28;19925;-86
2021/04/19 14:37:33;;;;;;;;;;;13.40;99.90;;;;;;10409522;28;19932;-86
2021/04/19 14:42:35;;;;;;;;;;;13.20;99.90;;;;;;10408527;28;19991;-85
2021/04/19 14:47:36;;;;;;;;;;;13.20;99.90;;;;;;10408422;28;19932;-85
2021/04/19 14:52:40;;;;;;;;;;;13.20;99.90;;;;;;10408338;28;20016;-86
2021/04/19 14:57:41;;;;;;;;;;;13.10;99.90;;;;;;10407859;28;19972;-85
2021/04/19 15:02:42;;;;;;;;;;;13.10;99.90;;;;;;10409074;28;19961;-86
2021/04/19 15:07:44;;;;;;;;;;;13.00;99.90;;;;;;10409127;28;19926;-85
2021/04/19 15:12:45;;;;;;;;;;;12.80;99.90;;;;;;10408297;28;20783;-85
2021/04/19 15:17:47;;;;;;;;;;;12.80;99.90;;;;;;10391475;28;20011;-85
2021/04/19 15:22:50;;;;;;;;;;;12.80;99.90;;;;;;10410444;28;19929;-85
2021/04/19 15:27:51;;;;;;;;;;;12.90;99.90;;;;;;10409201;28;19925;-85
2021/04/19 15:32:53;;;;;;;;;;;12.90;99.90;;;;;;10415241;28;19932;-85
2021/04/19 15:37:55;;;;;;;;;;;12.90;99.90;;;;;;10413406;28;20008;-85
2021/04/19 15:42:56;;;;;;;;;;;12.90;99.90;;;;;;10414447;28;20027;-85
2021/04/19 15:47:57;;;;;;;;;;;13.00;99.90;;;;;;10413561;28;19968;-85
2021/04/19 15:52:59;;;;;;;;;;;13.20;99.90;;;;;;10413588;28;19937;-85
2021/04/19 15:58:16;;;;;;;;;;;13.20;99.90;;;;;;10413817;28;19925;-84
2021/04/19 16:03:18;;;;;;;;;;;13.10;99.90;;;;;;10413816;28;19925;-85
2021/04/19 16:08:20;;;;;;;;;;;13.10;99.90;;;;;;10448071;22;19951;-85
2021/04/19 16:13:21;;;;;;;;;;;12.90;99.90;;;;;;10440837;28;19931;-85
2021/04/19 16:18:23;;;;;;;;;;;13.00;99.90;;;;;;10426274;27;19924;-86
2021/04/19 16:23:24;;;;;;;;;;;13.00;99.90;;;;;;10434749;28;19925;-86
2021/04/19 16:28:25;;;;;;;;;;;13.00;99.90;;;;;;10435900;28;20004;-86
2021/04/19 16:33:26;;;;;;;;;;;13.10;99.90;;;;;;10453694;28;19925;-86
2021/04/19 16:38:28;;;;;;;;;;;13.10;99.90;;;;;;10453723;28;19964;-86
2021/04/19 16:43:29;;;;;;;;;;;13.10;99.90;;;;;;10419683;28;19924;-86
2021/04/19 16:48:33;;;;;;;;;;;13.10;99.90;;;;;;10419902;28;20316;-85
2021/04/19 16:53:34;;;;;;;;;;;12.90;99.90;;;;;;10453999;28;19925;-86
2021/04/19 16:58:36;;;;;;;;;;;12.90;99.90;;;;;;10435884;28;19931;-86
2021/04/19 17:03:38;;;;;;;;;;;12.90;99.90;;;;;;10434841;28;19960;-86
2021/04/19 17:08:39;;;;;;;;;;;12.90;99.90;;;;;;10452138;28;20027;-86
2021/04/19 17:13:42;;;;;;;;;;;12.80;99.90;;;;;;10435016;28;19970;-86
2021/04/19 17:18:43;;;;;;;;;;;12.70;99.90;;;;;;10452361;28;20295;-86
2021/04/19 17:23:45;;;;;;;;;;;12.80;99.90;;;;;;10435247;28;19971;-86
2021/04/19 17:28:47;;;;;;;;;;;12.70;99.90;;;;;;10434924;28;19925;-86
2021/04/19 17:33:48;;;;;;;;;;;12.70;99.90;;;;;;10418908;28;19924;-86
2021/04/19 17:38:50;;;;;;;;;;;12.50;99.90;;;;;;10418196;28;19933;-86
2021/04/19 17:43:51;;;;;;;;;;;12.40;99.90;;;;;;10431465;28;20027;-86
2021/04/19 17:48:53;;;;;;;;;;;12.30;99.90;;;;;;10451133;28;19924;-86
2021/04/19 17:53:54;;;;;;;;;;;12.10;99.90;;;;;;10431397;28;20454;-86
2021/04/19 17:58:57;;;;;;;;;;;11.80;99.90;;;;;;10450557;28;19925;-86
2021/04/19 18:03:58;;;;;;;;;;;11.60;99.90;;;;;;10417485;28;19929;-86
2021/04/19 18:09:00;;;;;;;;;;;11.50;99.90;;;;;;10451816;28;19929;-86
2021/04/19 18:14:01;;;;;;;;;;;11.30;99.90;;;;;;10423116;28;19925;-85
2021/04/19 18:19:03;;;;;;;;;;;11.00;99.90;;;;;;10448276;28;20268;-86
2021/04/19 18:24:05;;;;;;;;;;;10.80;99.90;;;;;;10450187;28;19929;-86
2021/04/19 18:29:07;;;;;;;;;;;10.70;99.90;;;;;;10450833;28;19970;-86
2021/04/19 18:34:08;;;;;;;;;;;10.40;99.90;;;;;;10450864;28;19925;-86
2021/04/19 18:39:11;;;;;;;;;;;10.30;99.90;;;;;;10422452;28;19931;-86
2021/04/19 18:44:12;;;;;;;;;;;10.00;99.90;;;;;;10420730;28;19924;-85
2021/04/19 18:49:15;;;;;;;;;;;10.00;99.90;;;;;;10406996;28;19936;-85
2021/04/19 18:54:17;;;;;;;;;;;9.80;99.90;;;;;;10381255;28;20278;-86
2021/04/19 18:59:20;;;;;;;;;;;9.50;99.90;;;;;;10454054;28;19931;-85
2021/04/19 19:04:21;;;;;;;;;;;9.40;99.90;;;;;;10395018;28;19925;-86
2021/04/19 19:09:22;;;;;;;;;;;9.30;99.90;;;;;;10445549;28;19932;-87
2021/04/19 19:14:25;;;;;;;;;;;9.20;99.90;;;;;;10417842;28;20256;-85
2021/04/19 19:19:27;;;;;;;;;;;9.00;99.90;;;;;;10456536;28;19925;-85
2021/04/19 19:24:28;;;;;;;;;;;8.90;99.90;;;;;;10456469;28;20088;-86
2021/04/19 19:29:30;;;;;;;;;;;8.90;99.90;;;;;;10422115;28;19931;-85
2021/04/19 19:34:31;;;;;;;;;;;8.70;99.90;;;;;;10437938;28;19925;-85
2021/04/19 19:39:32;;;;;;;;;;;8.70;99.90;;;;;;10456256;28;19932;-85
2021/04/19 19:44:34;;;;;;;;;;;8.60;99.90;;;;;;10437733;28;19925;-85
2021/04/19 19:49:35;;;;;;;;;;;8.40;99.90;;;;;;10423324;28;19925;-85
2021/04/19 19:54:38;;;;;;;;;;;8.40;99.90;;;;;;10482391;28;20012;-85
2021/04/19 19:59:40;;;;;;;;;;;8.40;99.90;;;;;;10414085;28;19925;-84
2021/04/19 20:04:42;;;;;;;;;;;8.40;99.90;;;;;;10421599;28;19931;-85
2021/04/19 20:09:43;;;;;;;;;;;8.20;99.90;;;;;;10432803;28;19931;-85
2021/04/19 20:14:44;;;;;;;;;;;8.20;99.90;;;;;;10400116;28;19925;-85
2021/04/19 20:19:47;;;;;;;;;;;8.30;99.90;;;;;;10447161;28;19931;-85
2021/04/19 20:24:48;;;;;;;;;;;8.10;99.90;;;;;;10416701;28;19974;-85
2021/04/19 20:29:50;;;;;;;;;;;8.00;99.90;;;;;;10435853;28;20503;-86
2021/04/19 20:34:51;;;;;;;;;;;7.80;99.90;;;;;;10556226;27;19925;-85
2021/04/19 20:39:53;;;;;;;;;;;7.80;99.90;;;;;;10436614;28;20023;-85
2021/04/19 20:44:54;;;;;;;;;;;7.80;99.90;;;;;;10401469;28;19932;-86
2021/04/19 20:49:55;;;;;;;;;;;7.80;99.90;;;;;;10429796;28;20355;-86
2021/04/19 20:54:56;;;;;;;;;;;7.70;99.90;;;;;;10449932;28;19925;-86
2021/04/19 20:59:58;;;;;;;;;;;7.70;99.90;;;;;;10450990;28;19925;-85
2021/04/19 21:04:59;;;;;;;;;;;7.60;99.90;;;;;;10418878;28;20008;-85
2021/04/19 21:10:01;;;;;;;;;;;7.50;99.90;;;;;;10452557;28;20395;-86
2021/04/19 21:15:03;;;;;;;;;;;7.50;99.90;;;;;;10421504;28;19925;-86
2021/04/19 21:20:05;;;;;;;;;;;7.30;99.90;;;;;;10433982;28;19936;-85
2021/04/19 21:25:07;;;;;;;;;;;7.40;99.90;;;;;;10433294;28;20264;-85
2021/04/19 21:30:09;;;;;;;;;;;7.30;99.90;;;;;;10434899;28;20024;-85
2021/04/19 21:35:11;;;;;;;;;;;7.20;99.90;;;;;;10450985;28;20290;-85
2021/04/19 21:40:13;;;;;;;;;;;7.20;99.90;;;;;;10434944;28;19925;-85
2021/04/19 21:45:14;;;;;;;;;;;7.20;99.90;;;;;;10452398;28;19924;-85
2021/04/19 21:50:16;;;;;;;;;;;7.20;99.90;;;;;;10434227;28;20373;-85
2021/04/19 21:55:17;;;;;;;;;;;7.00;99.90;;;;;;10433961;28;19924;-85
2021/04/19 22:00:27;;;;;;;;;;;7.10;99.90;;;;;;10433268;28;20283;-86
2021/04/19 22:05:28;;;;;;;;;;;7.10;99.90;;;;;;10504069;22;20396;-86
2021/04/19 22:10:30;;;;;;;;;;;7.00;99.90;;;;;;10564378;28;20362;-86
2021/04/19 22:15:31;;;;;;;;;;;7.00;99.90;;;;;;10581646;28;19927;-86
2021/04/19 22:20:33;;;;;;;;;;;6.80;99.90;;;;;;10580427;28;19949;-86
2021/04/19 22:25:36;;;;;;;;;;;6.70;99.90;;;;;;10582039;28;19924;-86
2021/04/19 22:30:38;;;;;;;;;;;7.20;99.90;;;;;;10584101;28;19924;-86
2021/04/19 22:35:39;;;;;;;;;;;6.80;99.90;;;;;;10556381;28;19923;-86
2021/04/19 22:40:40;;;;;;;;;;;6.90;99.90;;;;;;10590869;28;19924;-86
2021/04/19 22:45:42;;;;;;;;;;;7.00;99.90;;;;;;10572759;28;19928;-86
2021/04/19 22:50:43;;;;;;;;;;;6.90;99.90;;;;;;10572687;28;19940;-86
2021/04/19 22:55:44;;;;;;;;;;;6.90;99.90;;;;;;10590254;28;19946;-86
2021/04/19 23:00:46;;;;;;;;;;;6.80;99.90;;;;;;10571277;28;19926;-86
2021/04/19 23:05:47;;;;;;;;;;;6.80;99.90;;;;;;10517955;28;19974;-86
2021/04/19 23:10:49;;;;;;;;;;;6.80;99.90;;;;;;10397368;28;19932;-86
2021/04/19 23:15:50;;;;;;;;;;;6.70;99.90;;;;;;10398636;28;19931;-86
2021/04/19 23:20:52;;;;;;;;;;;6.60;99.90;;;;;;10555168;28;19928;-85
2021/04/19 23:25:54;;;;;;;;;;;6.50;99.90;;;;;;10574505;28;20012;-86
2021/04/19 23:30:56;;;;;;;;;;;7.00;99.90;;;;;;10394544;28;19925;-86
2021/04/19 23:35:57;;;;;;;;;;;7.30;99.90;;;;;;10357289;28;19934;-86
2021/04/19 23:40:58;;;;;;;;;;;7.20;99.90;;;;;;10355854;28;19947;-86
2021/04/19 23:46:00;;;;;;;;;;;6.20;99.90;;;;;;10339304;28;19925;-86
2021/04/19 23:51:01;;;;;;;;;;;6.20;99.90;;;;;;10356701;28;19930;-86
2021/04/19 23:56:03;;;;;;;;;;;6.10;99.90;;;;;;10387465;28;19926;-86
